Time;durP1;ratioP1;P1;durP2;ratioP2;P2;SDS_P1;SDS_P2;PMS_P1;PMS_P2;Temp;Humidity;BMP_temperature;BMP_pressure;BME280_temperature;BME280_humidity;BME280_pressure;Samples;Min_cycle;Max_cycle;Signal;HPM_P1;HPM_P2
2022/07/09 00:01:53;;;;;;;;;;;22.00;64.60;;;;;;5074544;28;20266;-55
2022/07/09 00:04:19;;;;;;;;;;;22.00;65.20;;;;;;5074202;28;19923;-50
2022/07/09 00:06:44;;;;;;;;;;;22.00;64.80;;;;;;5073638;28;19916;-52
2022/07/09 00:09:10;;;;;;;;;;;22.00;65.10;;;;;;5073821;28;19940;-54
2022/07/09 00:11:35;;;;;;;;;;;21.90;65.50;;;;;;5074721;28;19913;-55
2022/07/09 00:14:01;;;;;;;;;;;21.90;65.60;;;;;;5073816;28;19919;-55
2022/07/09 00:16:26;;;;;;;;;;;21.90;66.40;;;;;;5073947;28;19913;-55
2022/07/09 00:18:52;;;;;;;;;;;21.80;66.30;;;;;;5074072;28;19954;-52
2022/07/09 00:21:17;;;;;;;;;;;21.80;66.50;;;;;;5073459;28;20261;-55
2022/07/09 00:23:43;;;;;;;;;;;21.80;67.40;;;;;;5073774;28;19924;-52
2022/07/09 00:26:08;;;;;;;;;;;21.70;67.70;;;;;;5073743;28;19994;-55
2022/07/09 00:28:34;;;;;;;;;;;21.70;69.00;;;;;;5073759;28;20376;-55
2022/07/09 00:30:59;;;;;;;;;;;21.60;68.80;;;;;;5055435;28;19954;-54
2022/07/09 00:33:25;;;;;;;;;;;21.60;68.60;;;;;;5073872;28;20377;-50
2022/07/09 00:35:50;;;;;;;;;;;21.60;68.80;;;;;;5073472;28;19908;-55
2022/07/09 00:38:16;;;;;;;;;;;21.50;68.30;;;;;;5073026;28;20015;-55
2022/07/09 00:40:41;;;;;;;;;;;21.50;69.00;;;;;;5073818;28;19909;-55
2022/07/09 00:43:19;;;;;;;;;;;21.50;68.60;;;;;;5073664;28;20434;-53
2022/07/09 00:45:46;;;;;;;;;;;21.50;68.50;;;;;;5073516;28;19923;-55
2022/07/09 00:48:12;;;;;;;;;;;21.40;68.10;;;;;;5066974;28;20003;-57
2022/07/09 00:50:38;;;;;;;;;;;21.40;68.70;;;;;;5054672;28;19991;-55
2022/07/09 00:53:05;;;;;;;;;;;21.40;67.90;;;;;;5073424;28;19909;-54
2022/07/09 00:55:31;;;;;;;;;;;21.40;69.70;;;;;;5073742;28;19912;-54
2022/07/09 00:57:56;;;;;;;;;;;21.30;68.70;;;;;;5072732;28;19908;-55
2022/07/09 01:00:22;;;;;;;;;;;21.30;69.90;;;;;;5072267;28;19912;-56
2022/07/09 01:02:48;;;;;;;;;;;21.30;70.00;;;;;;5072559;28;20888;-55
2022/07/09 01:05:14;;;;;;;;;;;21.20;69.40;;;;;;5072603;28;19913;-53
2022/07/09 01:07:40;;;;;;;;;;;21.20;70.30;;;;;;5072922;28;19913;-52
2022/07/09 01:10:05;;;;;;;;;;;21.20;70.30;;;;;;5073303;28;19913;-56
2022/07/09 01:12:31;;;;;;;;;;;21.10;70.80;;;;;;5073016;28;19909;-54
2022/07/09 01:14:57;;;;;;;;;;;21.20;70.50;;;;;;5071198;28;19916;-52
2022/07/09 01:17:22;;;;;;;;;;;21.10;70.40;;;;;;5072701;28;19909;-54
2022/07/09 01:19:48;;;;;;;;;;;21.10;71.10;;;;;;5072324;28;19995;-55
2022/07/09 01:22:13;;;;;;;;;;;21.10;70.70;;;;;;5072968;28;19912;-54
2022/07/09 01:24:39;;;;;;;;;;;21.00;70.90;;;;;;5072576;28;19912;-56
2022/07/09 01:27:05;;;;;;;;;;;21.10;71.40;;;;;;5072575;28;19934;-55
2022/07/09 01:29:31;;;;;;;;;;;21.00;71.20;;;;;;5066299;28;20437;-50
2022/07/09 01:31:56;;;;;;;;;;;21.00;71.40;;;;;;5072474;28;19999;-55
2022/07/09 01:34:22;;;;;;;;;;;21.00;71.50;;;;;;5072078;28;19950;-53
2022/07/09 01:36:47;;;;;;;;;;;21.00;71.60;;;;;;5072313;28;19987;-55
2022/07/09 01:39:13;;;;;;;;;;;20.90;71.20;;;;;;5072958;28;19932;-55
2022/07/09 01:41:39;;;;;;;;;;;20.90;72.00;;;;;;5072187;28;20366;-56
2022/07/09 01:44:04;;;;;;;;;;;20.90;70.50;;;;;;5072476;28;19974;-55
2022/07/09 01:46:29;;;;;;;;;;;20.80;71.70;;;;;;5072084;28;19908;-55
2022/07/09 01:48:55;;;;;;;;;;;20.80;71.40;;;;;;5071477;28;20362;-55
2022/07/09 01:51:22;;;;;;;;;;;20.80;71.00;;;;;;5072318;28;19934;-55
2022/07/09 01:53:47;;;;;;;;;;;20.80;71.60;;;;;;5071890;28;19909;-53
2022/07/09 01:56:13;;;;;;;;;;;20.80;72.70;;;;;;5072385;28;19957;-51
2022/07/09 01:58:38;;;;;;;;;;;20.80;71.10;;;;;;5071873;28;19915;-54
2022/07/09 02:01:04;;;;;;;;;;;20.80;71.60;;;;;;5071939;28;19909;-54
2022/07/09 02:03:30;;;;;;;;;;;20.70;71.90;;;;;;5071343;28;19948;-55
2022/07/09 02:05:56;;;;;;;;;;;20.70;71.30;;;;;;5072440;28;19909;-55
2022/07/09 02:08:22;;;;;;;;;;;20.70;71.80;;;;;;5068420;28;19917;-55
2022/07/09 02:10:48;;;;;;;;;;;20.60;71.40;;;;;;5068609;28;20324;-55
2022/07/09 02:13:13;;;;;;;;;;;20.60;72.80;;;;;;5071161;28;19913;-56
2022/07/09 02:15:39;;;;;;;;;;;20.60;73.40;;;;;;5071525;28;19999;-55
2022/07/09 02:18:04;;;;;;;;;;;20.60;71.60;;;;;;5071307;28;19908;-54
2022/07/09 02:20:30;;;;;;;;;;;20.60;72.70;;;;;;5071356;28;19909;-54
2022/07/09 02:22:56;;;;;;;;;;;20.50;71.80;;;;;;5071495;28;19917;-55
2022/07/09 02:25:21;;;;;;;;;;;20.50;72.70;;;;;;5071242;28;19909;-54
2022/07/09 02:27:47;;;;;;;;;;;20.50;72.70;;;;;;5071985;28;19908;-54
2022/07/09 02:30:13;;;;;;;;;;;20.50;72.10;;;;;;5071621;28;19908;-55
2022/07/09 02:32:39;;;;;;;;;;;20.50;72.60;;;;;;5070527;28;19908;-50
2022/07/09 02:35:05;;;;;;;;;;;20.40;72.40;;;;;;5071381;28;20376;-55
2022/07/09 02:37:30;;;;;;;;;;;20.40;72.60;;;;;;5072124;28;19912;-56
2022/07/09 02:39:56;;;;;;;;;;;20.40;73.10;;;;;;5071343;28;19932;-55
2022/07/09 02:42:21;;;;;;;;;;;20.30;72.70;;;;;;5071525;28;19909;-50
2022/07/09 02:44:47;;;;;;;;;;;20.30;72.60;;;;;;5070519;28;20377;-56
2022/07/09 02:47:12;;;;;;;;;;;20.30;73.70;;;;;;5070837;28;19921;-51
2022/07/09 02:49:38;;;;;;;;;;;20.30;74.10;;;;;;5071583;28;19940;-54
2022/07/09 02:52:03;;;;;;;;;;;20.30;75.20;;;;;;5064604;28;19970;-54
2022/07/09 02:54:29;;;;;;;;;;;20.30;75.50;;;;;;5070676;28;19908;-56
2022/07/09 02:56:54;;;;;;;;;;;20.20;73.50;;;;;;5071917;28;19908;-55
2022/07/09 02:59:20;;;;;;;;;;;20.20;75.40;;;;;;5070823;28;19908;-53
2022/07/09 03:01:46;;;;;;;;;;;20.20;73.90;;;;;;5070537;28;20289;-55
2022/07/09 03:04:12;;;;;;;;;;;20.10;74.00;;;;;;5070652;28;20296;-53
2022/07/09 03:06:37;;;;;;;;;;;20.20;74.20;;;;;;5071386;28;19912;-55
2022/07/09 03:09:03;;;;;;;;;;;20.10;75.90;;;;;;5070468;28;20082;-54
2022/07/09 03:11:28;;;;;;;;;;;20.10;74.60;;;;;;5070982;28;19920;-54
2022/07/09 03:13:54;;;;;;;;;;;20.00;74.40;;;;;;5039378;28;20015;-55
2022/07/09 03:16:19;;;;;;;;;;;20.00;76.10;;;;;;5070449;28;19908;-54
2022/07/09 03:18:45;;;;;;;;;;;19.90;74.90;;;;;;5070848;28;20752;-55
2022/07/09 03:21:11;;;;;;;;;;;19.90;75.70;;;;;;5070618;28;19962;-50
2022/07/09 03:23:37;;;;;;;;;;;19.90;75.90;;;;;;5053098;28;19999;-55
2022/07/09 03:26:06;;;;;;;;;;;19.80;75.00;;;;;;5074751;28;20003;-51
2022/07/09 03:28:32;;;;;;;;;;;19.80;75.90;;;;;;5068546;28;19930;-55
2022/07/09 03:30:57;;;;;;;;;;;19.70;75.90;;;;;;5074249;28;19909;-52
2022/07/09 03:33:23;;;;;;;;;;;19.70;75.60;;;;;;5067663;28;19981;-52
2022/07/09 03:35:48;;;;;;;;;;;19.60;77.20;;;;;;5074564;28;20032;-54
2022/07/09 03:38:14;;;;;;;;;;;19.60;76.70;;;;;;5075165;28;19912;-51
2022/07/09 03:40:39;;;;;;;;;;;19.60;78.00;;;;;;5074540;28;19994;-55
2022/07/09 03:43:05;;;;;;;;;;;19.60;76.40;;;;;;5074626;28;20316;-54
2022/07/09 03:45:31;;;;;;;;;;;19.60;78.30;;;;;;5073966;28;19912;-56
2022/07/09 03:47:56;;;;;;;;;;;19.50;77.30;;;;;;5074326;28;19920;-54
2022/07/09 03:50:22;;;;;;;;;;;19.50;78.40;;;;;;5074637;28;20333;-55
2022/07/09 03:52:47;;;;;;;;;;;19.50;78.00;;;;;;5074585;28;19961;-53
2022/07/09 03:55:13;;;;;;;;;;;19.40;77.20;;;;;;5074300;28;19999;-55
2022/07/09 03:57:38;;;;;;;;;;;19.40;78.70;;;;;;5074280;28;19908;-56
2022/07/09 04:00:05;;;;;;;;;;;19.30;77.50;;;;;;5073699;28;19912;-56
2022/07/09 04:02:30;;;;;;;;;;;19.40;77.90;;;;;;5074052;28;19920;-54
2022/07/09 04:04:56;;;;;;;;;;;19.30;78.90;;;;;;5074066;28;20433;-55
2022/07/09 04:07:22;;;;;;;;;;;19.20;79.30;;;;;;5074353;28;19915;-55
2022/07/09 04:09:47;;;;;;;;;;;19.20;78.80;;;;;;5072118;28;19909;-55
2022/07/09 04:12:13;;;;;;;;;;;19.20;79.70;;;;;;5037601;28;19962;-55
2022/07/09 04:14:38;;;;;;;;;;;19.10;79.90;;;;;;5074146;28;20487;-55
2022/07/09 04:17:05;;;;;;;;;;;19.10;80.00;;;;;;5073934;28;20318;-54
2022/07/09 04:19:31;;;;;;;;;;;19.10;79.50;;;;;;5073898;28;19954;-56
2022/07/09 04:21:57;;;;;;;;;;;19.00;79.30;;;;;;5074359;28;19908;-55
2022/07/09 04:24:22;;;;;;;;;;;19.00;80.40;;;;;;5073890;28;20292;-53
2022/07/09 04:26:48;;;;;;;;;;;19.00;80.20;;;;;;5073526;28;19955;-54
2022/07/09 04:29:13;;;;;;;;;;;19.10;80.60;;;;;;5073477;28;19927;-55
2022/07/09 04:31:39;;;;;;;;;;;19.00;80.50;;;;;;5073908;28;20393;-55
2022/07/09 04:34:04;;;;;;;;;;;19.00;80.60;;;;;;5073608;28;19958;-55
2022/07/09 04:36:31;;;;;;;;;;;19.00;81.30;;;;;;5073381;28;20344;-55
2022/07/09 04:38:56;;;;;;;;;;;19.00;81.50;;;;;;5073937;28;20293;-54
2022/07/09 04:41:22;;;;;;;;;;;19.00;81.30;;;;;;5073560;28;19909;-56
2022/07/09 04:43:48;;;;;;;;;;;19.00;81.50;;;;;;5073363;28;19917;-54
2022/07/09 04:46:13;;;;;;;;;;;19.00;81.80;;;;;;5072936;28;20339;-54
2022/07/09 04:48:39;;;;;;;;;;;19.00;81.20;;;;;;5071428;28;19921;-53
2022/07/09 04:51:05;;;;;;;;;;;19.00;81.90;;;;;;5073371;28;19954;-56
2022/07/09 04:53:30;;;;;;;;;;;19.00;81.50;;;;;;5073369;28;19913;-55
2022/07/09 04:55:56;;;;;;;;;;;19.00;81.10;;;;;;5065785;28;20005;-55
2022/07/09 04:58:22;;;;;;;;;;;19.00;82.20;;;;;;5072792;28;19912;-55
2022/07/09 05:00:47;;;;;;;;;;;19.00;80.90;;;;;;5072811;28;19920;-54
2022/07/09 05:03:13;;;;;;;;;;;19.00;81.50;;;;;;5072826;28;19923;-55
2022/07/09 05:05:38;;;;;;;;;;;19.00;81.00;;;;;;5072917;28;19948;-54
2022/07/09 05:08:04;;;;;;;;;;;19.00;81.90;;;;;;5073140;28;20446;-55
2022/07/09 05:10:29;;;;;;;;;;;19.00;82.20;;;;;;5072789;28;20000;-51
2022/07/09 05:12:55;;;;;;;;;;;19.00;82.40;;;;;;5072721;28;20334;-56
2022/07/09 05:15:20;;;;;;;;;;;19.00;82.50;;;;;;5072814;28;19996;-55
2022/07/09 05:17:46;;;;;;;;;;;18.90;82.80;;;;;;5072858;28;19908;-56
2022/07/09 05:20:11;;;;;;;;;;;19.00;83.00;;;;;;5072404;28;19916;-56
2022/07/09 05:22:38;;;;;;;;;;;18.90;83.10;;;;;;5054806;28;19917;-55
2022/07/09 05:25:04;;;;;;;;;;;19.00;82.50;;;;;;5072788;28;20354;-56
2022/07/09 05:27:29;;;;;;;;;;;19.00;83.20;;;;;;5065214;28;19935;-55
2022/07/09 05:29:55;;;;;;;;;;;19.10;83.80;;;;;;5072120;28;20377;-54
2022/07/09 05:32:20;;;;;;;;;;;19.10;83.30;;;;;;5041234;28;20012;-55
2022/07/09 05:34:46;;;;;;;;;;;19.10;83.50;;;;;;5072030;28;20007;-55
2022/07/09 05:37:12;;;;;;;;;;;19.10;83.70;;;;;;5071966;28;19908;-55
2022/07/09 05:39:37;;;;;;;;;;;19.10;83.20;;;;;;5072380;28;19913;-54
2022/07/09 05:42:03;;;;;;;;;;;19.10;83.60;;;;;;5071418;28;19908;-55
2022/07/09 05:44:28;;;;;;;;;;;19.20;83.50;;;;;;5072241;28;19990;-55
2022/07/09 05:46:54;;;;;;;;;;;19.20;83.50;;;;;;5071487;28;19912;-55
2022/07/09 05:49:20;;;;;;;;;;;19.20;83.80;;;;;;5071737;28;19917;-57
2022/07/09 05:51:45;;;;;;;;;;;19.20;83.80;;;;;;5053832;28;19947;-55
2022/07/09 05:54:11;;;;;;;;;;;19.30;83.60;;;;;;5071573;28;19995;-57
2022/07/09 05:56:36;;;;;;;;;;;19.30;83.20;;;;;;5072014;28;19908;-56
2022/07/09 05:59:05;;;;;;;;;;;19.30;83.30;;;;;;5068276;28;19909;-56
2022/07/09 06:01:31;;;;;;;;;;;19.40;84.40;;;;;;5071326;28;19948;-57
2022/07/09 06:03:56;;;;;;;;;;;19.50;83.60;;;;;;5070825;28;20029;-56
2022/07/09 06:06:22;;;;;;;;;;;19.50;83.50;;;;;;5074425;28;19912;-58
2022/07/09 06:08:47;;;;;;;;;;;19.60;83.80;;;;;;5071474;28;19916;-56
2022/07/09 06:11:13;;;;;;;;;;;19.60;83.50;;;;;;5071531;28;19908;-56
2022/07/09 06:13:38;;;;;;;;;;;19.60;83.40;;;;;;5071638;28;19908;-62
2022/07/09 06:16:04;;;;;;;;;;;19.60;83.30;;;;;;5069923;28;19917;-60
2022/07/09 06:18:29;;;;;;;;;;;19.70;83.20;;;;;;5076931;28;20011;-61
2022/07/09 06:20:55;;;;;;;;;;;19.70;83.30;;;;;;5080932;28;19919;-61
2022/07/09 06:23:21;;;;;;;;;;;19.80;83.30;;;;;;5080048;28;19923;-61
2022/07/09 06:25:47;;;;;;;;;;;19.80;83.70;;;;;;5079398;28;19909;-60
2022/07/09 06:28:12;;;;;;;;;;;19.80;83.60;;;;;;5080150;28;20292;-62
2022/07/09 06:30:38;;;;;;;;;;;19.90;83.60;;;;;;5073818;28;19965;-63
2022/07/09 06:33:03;;;;;;;;;;;19.90;83.10;;;;;;5048477;28;19913;-62
2022/07/09 06:35:30;;;;;;;;;;;19.90;83.20;;;;;;5067849;28;19908;-62
2022/07/09 06:37:56;;;;;;;;;;;20.00;83.20;;;;;;5071168;28;20385;-61
2022/07/09 06:40:22;;;;;;;;;;;20.00;83.30;;;;;;5080522;28;19962;-61
2022/07/09 06:42:47;;;;;;;;;;;20.10;83.10;;;;;;5068185;28;19959;-56
2022/07/09 06:45:14;;;;;;;;;;;20.10;83.20;;;;;;5063037;28;20105;-57
2022/07/09 06:47:40;;;;;;;;;;;20.20;83.10;;;;;;5068534;28;20016;-58
2022/07/09 06:50:05;;;;;;;;;;;20.20;83.20;;;;;;5068642;28;19995;-57
2022/07/09 06:52:31;;;;;;;;;;;20.20;82.90;;;;;;5068650;28;19912;-56
2022/07/09 06:54:57;;;;;;;;;;;20.30;83.00;;;;;;5066979;28;19913;-57
2022/07/09 06:57:22;;;;;;;;;;;20.30;83.00;;;;;;5068938;28;19919;-58
2022/07/09 06:59:48;;;;;;;;;;;20.40;83.20;;;;;;5065552;28;20270;-57
2022/07/09 07:02:16;;;;;;;;;;;20.40;82.90;;;;;;5069094;28;20514;-57
2022/07/09 07:04:41;;;;;;;;;;;20.40;82.90;;;;;;5066868;28;19921;-58
2022/07/09 07:07:07;;;;;;;;;;;20.50;82.90;;;;;;5068396;28;20292;-58
2022/07/09 07:09:32;;;;;;;;;;;20.50;82.60;;;;;;5067583;28;19913;-58
2022/07/09 07:11:58;;;;;;;;;;;20.60;82.70;;;;;;5067974;28;19995;-57
2022/07/09 07:14:24;;;;;;;;;;;20.60;82.70;;;;;;5049777;28;19920;-56
2022/07/09 07:16:50;;;;;;;;;;;20.70;82.60;;;;;;5068594;28;19923;-56
2022/07/09 07:19:16;;;;;;;;;;;20.70;82.70;;;;;;5068485;28;20276;-56
2022/07/09 07:21:42;;;;;;;;;;;20.70;82.60;;;;;;5067523;28;19993;-62
2022/07/09 07:24:08;;;;;;;;;;;20.80;82.40;;;;;;5067866;28;20381;-59
2022/07/09 07:26:34;;;;;;;;;;;20.80;82.30;;;;;;5067494;28;19912;-59
2022/07/09 07:29:00;;;;;;;;;;;20.90;82.50;;;;;;5068082;28;19920;-59
2022/07/09 07:31:25;;;;;;;;;;;20.90;82.40;;;;;;5067778;28;19917;-60
2022/07/09 07:33:51;;;;;;;;;;;21.00;82.20;;;;;;5067347;28;19964;-59
2022/07/09 07:36:17;;;;;;;;;;;21.00;82.10;;;;;;5068372;28;20304;-59
2022/07/09 07:38:42;;;;;;;;;;;21.10;81.90;;;;;;5066970;28;20035;-59
2022/07/09 07:41:08;;;;;;;;;;;21.10;81.80;;;;;;5068261;28;19919;-59
2022/07/09 07:43:33;;;;;;;;;;;21.10;81.80;;;;;;5067108;28;19921;-59
2022/07/09 07:45:59;;;;;;;;;;;21.20;81.60;;;;;;5067548;28;20030;-59
2022/07/09 07:48:27;;;;;;;;;;;21.20;81.20;;;;;;5067684;28;19924;-60
2022/07/09 07:50:53;;;;;;;;;;;21.30;81.90;;;;;;5068193;28;19958;-59
2022/07/09 07:53:18;;;;;;;;;;;21.30;81.20;;;;;;5067409;28;20319;-59
2022/07/09 07:55:44;;;;;;;;;;;21.30;80.80;;;;;;5067258;28;19920;-60
2022/07/09 07:58:09;;;;;;;;;;;21.30;81.00;;;;;;5068257;28;19917;-59
2022/07/09 08:00:37;;;;;;;;;;;21.40;81.00;;;;;;5068279;28;19912;-60
2022/07/09 08:03:03;;;;;;;;;;;21.40;80.90;;;;;;5066794;28;19927;-60
2022/07/09 08:05:28;;;;;;;;;;;21.50;80.50;;;;;;5038765;28;19968;-59
2022/07/09 08:07:54;;;;;;;;;;;21.50;80.30;;;;;;5067945;28;19912;-58
2022/07/09 08:10:19;;;;;;;;;;;21.50;80.40;;;;;;5068644;28;20341;-59
2022/07/09 08:12:45;;;;;;;;;;;21.60;80.10;;;;;;5071319;28;19916;-59
2022/07/09 08:15:10;;;;;;;;;;;21.60;79.80;;;;;;5071849;28;19916;-59
2022/07/09 08:17:36;;;;;;;;;;;21.60;79.70;;;;;;5068601;28;19917;-59
2022/07/09 08:20:02;;;;;;;;;;;21.60;79.40;;;;;;5071287;28;19916;-59
2022/07/09 08:22:27;;;;;;;;;;;21.60;79.40;;;;;;5070562;28;19953;-60
2022/07/09 08:24:53;;;;;;;;;;;21.70;79.60;;;;;;5071570;28;19958;-59
2022/07/09 08:27:18;;;;;;;;;;;21.70;79.40;;;;;;5071083;28;20396;-59
2022/07/09 08:29:44;;;;;;;;;;;21.70;79.40;;;;;;5070900;28;19967;-59
2022/07/09 08:32:09;;;;;;;;;;;21.80;79.30;;;;;;5071395;28;19981;-59
2022/07/09 08:34:35;;;;;;;;;;;21.90;79.00;;;;;;5070877;28;19920;-58
2022/07/09 08:37:00;;;;;;;;;;;21.90;79.00;;;;;;5075953;28;20379;-59
2022/07/09 08:39:26;;;;;;;;;;;22.00;78.80;;;;;;5071272;28;20640;-61
2022/07/09 08:41:52;;;;;;;;;;;22.00;78.80;;;;;;5070748;28;19935;-59
2022/07/09 08:44:19;;;;;;;;;;;22.00;79.70;;;;;;5073633;28;19917;-58
2022/07/09 08:46:45;;;;;;;;;;;22.10;78.50;;;;;;5071106;28;20404;-60
2022/07/09 08:49:11;;;;;;;;;;;22.20;77.70;;;;;;5070551;28;19921;-59
2022/07/09 08:51:37;;;;;;;;;;;22.20;78.20;;;;;;5070566;28;19960;-59
2022/07/09 08:54:03;;;;;;;;;;;22.20;78.00;;;;;;5071605;28;19916;-60
2022/07/09 08:56:28;;;;;;;;;;;22.30;78.30;;;;;;5070697;28;19912;-61
2022/07/09 08:58:54;;;;;;;;;;;22.30;78.40;;;;;;5071115;28;20005;-59
2022/07/09 09:01:20;;;;;;;;;;;22.40;77.50;;;;;;5071201;28;19986;-59
2022/07/09 09:03:45;;;;;;;;;;;22.50;77.50;;;;;;5070254;28;19955;-59
2022/07/09 09:06:11;;;;;;;;;;;22.50;77.20;;;;;;5080726;28;20004;-59
2022/07/09 09:08:41;;;;;;;;;;;22.50;76.70;;;;;;5075483;28;19912;-59
2022/07/09 09:11:15;;;;;;;;;;;22.50;76.90;;;;;;5078817;28;19920;-58
2022/07/09 09:13:44;;;;;;;;;;;22.50;76.90;;;;;;5075572;28;19912;-59
2022/07/09 09:16:10;;;;;;;;;;;22.50;76.70;;;;;;5077465;28;19912;-59
2022/07/09 09:18:36;;;;;;;;;;;22.60;76.50;;;;;;5077457;28;19908;-58
2022/07/09 09:21:03;;;;;;;;;;;22.60;76.00;;;;;;5070126;28;19920;-59
2022/07/09 09:23:28;;;;;;;;;;;22.70;76.30;;;;;;5065623;28;19916;-59
2022/07/09 09:25:54;;;;;;;;;;;22.80;75.30;;;;;;5070601;28;19958;-59
2022/07/09 09:28:19;;;;;;;;;;;22.80;75.80;;;;;;5070835;28;19908;-59
2022/07/09 09:30:46;;;;;;;;;;;22.90;74.80;;;;;;5069653;28;20745;-59
2022/07/09 09:33:14;;;;;;;;;;;23.00;74.60;;;;;;5070080;28;19923;-58
2022/07/09 09:35:46;;;;;;;;;;;23.00;74.20;;;;;;5069093;28;19952;-59
2022/07/09 09:38:12;;;;;;;;;;;23.00;74.50;;;;;;5070632;28;19916;-60
2022/07/09 09:40:37;;;;;;;;;;;23.10;74.70;;;;;;5069448;28;19954;-59
2022/07/09 09:43:03;;;;;;;;;;;23.20;75.10;;;;;;5069952;28;19920;-59
2022/07/09 09:45:29;;;;;;;;;;;23.20;73.60;;;;;;5069895;28;19931;-60
2022/07/09 09:47:59;;;;;;;;;;;23.20;73.50;;;;;;5068065;28;20138;-59
2022/07/09 09:50:25;;;;;;;;;;;23.20;73.70;;;;;;5069697;28;19912;-60
2022/07/09 09:52:56;;;;;;;;;;;23.20;73.60;;;;;;5069585;28;19918;-59
2022/07/09 09:55:22;;;;;;;;;;;23.30;73.50;;;;;;5067814;28;19947;-59
2022/07/09 09:57:48;;;;;;;;;;;23.40;73.30;;;;;;5069705;28;19970;-58
2022/07/09 10:00:15;;;;;;;;;;;23.40;73.70;;;;;;5070314;28;19944;-58
2022/07/09 10:02:45;;;;;;;;;;;23.50;73.00;;;;;;5069190;28;19913;-59
2022/07/09 10:05:11;;;;;;;;;;;23.50;73.00;;;;;;5069428;28;19912;-59
2022/07/09 10:07:36;;;;;;;;;;;23.50;73.30;;;;;;5069093;28;20012;-59
2022/07/09 10:10:05;;;;;;;;;;;23.60;72.40;;;;;;5069872;28;19924;-59
2022/07/09 10:12:32;;;;;;;;;;;23.60;72.60;;;;;;5069219;28;20320;-58
2022/07/09 10:14:58;;;;;;;;;;;23.60;72.20;;;;;;5068936;28;19912;-61
2022/07/09 10:17:25;;;;;;;;;;;23.60;72.00;;;;;;5068896;28;20938;-59
2022/07/09 10:19:53;;;;;;;;;;;23.60;72.30;;;;;;5069614;28;19916;-59
2022/07/09 10:22:19;;;;;;;;;;;23.60;72.70;;;;;;5069605;28;19923;-59
2022/07/09 10:24:46;;;;;;;;;;;23.60;72.50;;;;;;5069450;28;20018;-59
2022/07/09 10:27:12;;;;;;;;;;;23.70;71.60;;;;;;5070939;28;19920;-59
2022/07/09 10:29:54;;;;;;;;;;;23.70;72.50;;;;;;5079193;28;20345;-59
2022/07/09 10:32:42;;;;;;;;;;;23.80;71.90;;;;;;5068711;28;19965;-59
2022/07/09 10:35:07;;;;;;;;;;;23.90;72.70;;;;;;5068752;28;20304;-59
2022/07/09 10:37:42;;;;;;;;;;;24.00;71.80;;;;;;5068349;28;20011;-58
2022/07/09 10:40:10;;;;;;;;;;;24.00;72.00;;;;;;5067137;28;19951;-58
2022/07/09 10:42:35;;;;;;;;;;;24.00;71.90;;;;;;5068081;28;19920;-59
2022/07/09 10:45:01;;;;;;;;;;;24.10;71.40;;;;;;5073694;28;19970;-59
2022/07/09 10:47:36;;;;;;;;;;;24.10;71.80;;;;;;5068043;28;20701;-60
2022/07/09 10:50:03;;;;;;;;;;;24.10;71.70;;;;;;5068493;28;19923;-60
2022/07/09 10:52:29;;;;;;;;;;;24.20;70.70;;;;;;5068413;28;19908;-59
2022/07/09 10:54:55;;;;;;;;;;;24.20;71.00;;;;;;5068830;28;19916;-59
2022/07/09 10:57:21;;;;;;;;;;;24.30;70.90;;;;;;5068763;28;19953;-58
2022/07/09 10:59:46;;;;;;;;;;;24.30;71.00;;;;;;5068671;28;19916;-58
2022/07/09 11:02:21;;;;;;;;;;;24.40;71.10;;;;;;5070407;28;19912;-59
2022/07/09 11:04:51;;;;;;;;;;;24.50;70.30;;;;;;5066981;28;19924;-59
2022/07/09 11:07:23;;;;;;;;;;;24.50;70.40;;;;;;5068294;28;19923;-59
2022/07/09 11:09:49;;;;;;;;;;;24.60;70.70;;;;;;5063470;28;20352;-59
2022/07/09 11:12:18;;;;;;;;;;;24.60;71.20;;;;;;5068263;28;19917;-58
2022/07/09 11:14:48;;;;;;;;;;;24.60;70.60;;;;;;5067309;28;19951;-60
2022/07/09 11:17:22;;;;;;;;;;;24.70;69.50;;;;;;5068472;28;20331;-59
2022/07/09 11:19:49;;;;;;;;;;;24.70;70.30;;;;;;5067355;28;20288;-58
2022/07/09 11:22:15;;;;;;;;;;;24.70;69.70;;;;;;5068890;28;19913;-59
2022/07/09 11:24:40;;;;;;;;;;;24.70;69.80;;;;;;5068224;28;20011;-58
2022/07/09 11:27:07;;;;;;;;;;;24.80;70.10;;;;;;5067202;28;19995;-58
2022/07/09 11:29:33;;;;;;;;;;;24.80;70.00;;;;;;5067813;28;19912;-59
2022/07/09 11:32:00;;;;;;;;;;;24.80;70.00;;;;;;5068295;28;19923;-58
2022/07/09 11:34:26;;;;;;;;;;;24.90;68.70;;;;;;5077677;28;19923;-59
2022/07/09 11:36:52;;;;;;;;;;;24.90;68.60;;;;;;5073746;28;19913;-58
2022/07/09 11:39:22;;;;;;;;;;;25.00;67.90;;;;;;5075769;28;19917;-58
2022/07/09 11:41:47;;;;;;;;;;;25.00;66.80;;;;;;5045574;28;20286;-57
2022/07/09 11:44:19;;;;;;;;;;;24.90;66.60;;;;;;5065026;28;19981;-59
2022/07/09 11:46:45;;;;;;;;;;;24.90;67.50;;;;;;5071173;28;19927;-58
2022/07/09 11:49:14;;;;;;;;;;;25.00;67.80;;;;;;5072197;28;20311;-58
2022/07/09 11:51:41;;;;;;;;;;;25.10;68.00;;;;;;5071709;28;20281;-58
2022/07/09 11:54:06;;;;;;;;;;;25.10;67.70;;;;;;5069803;28;20486;-58
2022/07/09 11:56:43;;;;;;;;;;;25.10;67.80;;;;;;5053080;28;20054;-58
2022/07/09 11:59:08;;;;;;;;;;;25.10;67.70;;;;;;5069217;28;19920;-58
2022/07/09 12:01:35;;;;;;;;;;;25.10;67.50;;;;;;5049495;28;20228;-58
2022/07/09 12:04:01;;;;;;;;;;;25.20;67.20;;;;;;5071391;28;20393;-59
2022/07/09 12:06:26;;;;;;;;;;;25.30;66.20;;;;;;5071447;28;19936;-59
2022/07/09 12:08:58;;;;;;;;;;;25.30;66.70;;;;;;5071565;28;19917;-57
2022/07/09 12:11:28;;;;;;;;;;;25.40;65.70;;;;;;5068089;28;19909;-58
2022/07/09 12:13:53;;;;;;;;;;;25.40;66.10;;;;;;5071301;28;19916;-58
2022/07/09 12:16:19;;;;;;;;;;;25.40;65.90;;;;;;5071987;28;19916;-58
2022/07/09 12:18:44;;;;;;;;;;;25.40;66.60;;;;;;5070684;28;21645;-57
2022/07/09 12:21:10;;;;;;;;;;;25.40;66.40;;;;;;5071907;28;19908;-56
2022/07/09 12:23:35;;;;;;;;;;;25.40;65.90;;;;;;5070911;28;19952;-55
2022/07/09 12:26:01;;;;;;;;;;;25.50;65.90;;;;;;5070072;28;19913;-56
2022/07/09 12:28:26;;;;;;;;;;;25.60;64.60;;;;;;5071202;28;19912;-57
2022/07/09 12:30:52;;;;;;;;;;;25.60;65.80;;;;;;5069326;28;20281;-55
2022/07/09 12:33:18;;;;;;;;;;;25.70;64.60;;;;;;5070328;28;19958;-56
2022/07/09 12:35:43;;;;;;;;;;;25.70;65.00;;;;;;5070988;28;19947;-56
2022/07/09 12:38:09;;;;;;;;;;;25.70;64.30;;;;;;5070928;28;20740;-59
2022/07/09 12:40:35;;;;;;;;;;;25.80;64.50;;;;;;5070746;28;19912;-60
2022/07/09 12:43:01;;;;;;;;;;;25.80;65.00;;;;;;5067666;28;19921;-60
2022/07/09 12:45:26;;;;;;;;;;;25.90;64.10;;;;;;5068499;28;19913;-60
2022/07/09 12:47:52;;;;;;;;;;;25.90;63.90;;;;;;5070634;28;20392;-61
2022/07/09 12:50:18;;;;;;;;;;;25.90;63.40;;;;;;5071069;28;19970;-59
2022/07/09 12:52:43;;;;;;;;;;;25.80;64.20;;;;;;5071172;28;19912;-61
2022/07/09 12:55:09;;;;;;;;;;;25.80;64.30;;;;;;5071404;28;19913;-61
2022/07/09 12:57:35;;;;;;;;;;;25.80;63.90;;;;;;5069760;28;19938;-60
2022/07/09 13:00:02;;;;;;;;;;;25.80;63.50;;;;;;5070784;28;19916;-60
2022/07/09 13:02:27;;;;;;;;;;;25.80;64.00;;;;;;5070386;28;19912;-60
2022/07/09 13:04:53;;;;;;;;;;;25.90;64.60;;;;;;5070943;28;19932;-59
2022/07/09 13:07:18;;;;;;;;;;;25.90;65.00;;;;;;5070450;28;19919;-60
2022/07/09 13:09:44;;;;;;;;;;;25.90;63.80;;;;;;5067848;28;19917;-61
2022/07/09 13:12:09;;;;;;;;;;;26.00;62.80;;;;;;5070138;28;19938;-61
2022/07/09 13:14:35;;;;;;;;;;;26.10;63.00;;;;;;5070140;28;19974;-60
2022/07/09 13:17:00;;;;;;;;;;;26.10;62.90;;;;;;5070769;28;19924;-60
2022/07/09 13:19:26;;;;;;;;;;;26.10;63.70;;;;;;5070321;28;20290;-60
2022/07/09 13:21:51;;;;;;;;;;;26.10;63.70;;;;;;5070493;28;19939;-60
2022/07/09 13:24:17;;;;;;;;;;;26.20;63.40;;;;;;5070203;28;19924;-58
2022/07/09 13:26:42;;;;;;;;;;;26.30;62.60;;;;;;5045799;28;19999;-59
2022/07/09 13:29:08;;;;;;;;;;;26.30;62.70;;;;;;5070137;28;19913;-60
2022/07/09 13:31:33;;;;;;;;;;;26.30;61.30;;;;;;5068165;28;19912;-59
2022/07/09 13:33:59;;;;;;;;;;;26.40;61.50;;;;;;5070352;28;20387;-59
2022/07/09 13:36:25;;;;;;;;;;;26.40;61.40;;;;;;5070347;28;20003;-59
2022/07/09 13:38:50;;;;;;;;;;;26.40;61.80;;;;;;5069353;28;19919;-58
2022/07/09 13:41:16;;;;;;;;;;;26.50;61.00;;;;;;5070330;28;19913;-60
2022/07/09 13:43:42;;;;;;;;;;;26.50;61.60;;;;;;5069903;28;19920;-58
2022/07/09 13:46:08;;;;;;;;;;;26.50;61.20;;;;;;5067550;28;20019;-59
2022/07/09 13:48:33;;;;;;;;;;;26.50;60.70;;;;;;5069829;28;20385;-61
2022/07/09 13:51:00;;;;;;;;;;;26.60;61.10;;;;;;5070044;28;20379;-56
2022/07/09 13:53:28;;;;;;;;;;;26.60;60.70;;;;;;5069604;28;19916;-56
2022/07/09 13:55:53;;;;;;;;;;;26.60;60.40;;;;;;5069157;28;19921;-56
2022/07/09 13:58:19;;;;;;;;;;;26.60;61.00;;;;;;5069927;28;19913;-56
2022/07/09 14:00:44;;;;;;;;;;;26.50;61.10;;;;;;5069034;28;20462;-53
2022/07/09 14:03:10;;;;;;;;;;;26.60;60.30;;;;;;5069295;28;20047;-57
2022/07/09 14:05:37;;;;;;;;;;;26.60;59.20;;;;;;5069230;28;20042;-56
2022/07/09 14:08:03;;;;;;;;;;;26.70;59.50;;;;;;5068418;28;20297;-57
2022/07/09 14:10:28;;;;;;;;;;;26.80;60.00;;;;;;5068752;28;19917;-55